BRX080 EHAM-KLAX
Flight info
| Callsign | BRX080 |
|---|---|
| Flight time | N/A |
| Altitude | 36000 |
| Route | BERGI L602 NALAX L46 ESHIN N110 ERKIT DCT HAVEN DCT CLYDE DCT BRUCE DCT EVNAL DCT ETILO/M082F370 DCT 59N020W 5930N03000W 59N040W 58N050W DCT DORYY/N0468F380 DCT TEALS DCT YGL DCT YQT/N0478F400 DCT KP12I DCT KP06G DCT KP81A DCT KD66U DCT KU54Q DCT BAWER DCT LAKRR Q73 HAKMN ANJLL4 |
| Aircraft | B772/H-SDE2E3FGHIJ5LORVWXY/LB1D1 |
Departure
| Time | N/A |
|---|---|
| Airport | Amsterdam Airport Schiphol (EHAM) |
Arrival
| Time | 2026-04-25 18:05 |
|---|---|
| Airport | Los Angeles International Airport (KLAX) |
| Time | Latitude | Longitude | Altitude | Speed | Heading |
|---|---|---|---|---|---|
| 2026-04-25 17:35 | 34.94316 | -115.80966 | 35870 ft | 386 kts | 229° |
| 2026-04-25 17:36 | 34.90819 | -115.85414 | 35870 ft | 385 kts | 230° |
| 2026-04-25 17:36 | 34.87262 | -115.89932 | 35877 ft | 385 kts | 230° |
| 2026-04-25 17:37 | 34.83571 | -115.94614 | 35879 ft | 383 kts | 230° |
| 2026-04-25 17:37 | 34.79967 | -115.99180 | 35878 ft | 382 kts | 230° |
| 2026-04-25 17:38 | 34.76901 | -116.03059 | 35886 ft | 382 kts | 230° |
| 2026-04-25 17:38 | 34.72612 | -116.08530 | 35877 ft | 382 kts | 230° |
| 2026-04-25 17:39 | 34.70800 | -116.10835 | 35738 ft | 370 kts | 230° |
| 2026-04-25 17:39 | 34.69037 | -116.13079 | 34947 ft | 373 kts | 230° |
| 2026-04-25 17:39 | 34.67239 | -116.15368 | 34130 ft | 375 kts | 230° |
| 2026-04-25 17:39 | 34.65428 | -116.17671 | 33433 ft | 374 kts | 230° |
| 2026-04-25 17:40 | 34.63632 | -116.19953 | 32778 ft | 384 kts | 229° |
| 2026-04-25 17:40 | 34.61718 | -116.22388 | 32067 ft | 407 kts | 229° |
| 2026-04-25 17:40 | 34.59758 | -116.24875 | 31314 ft | 413 kts | 229° |
| 2026-04-25 17:40 | 34.57755 | -116.27413 | 30574 ft | 416 kts | 228° |
| 2026-04-25 17:41 | 34.55782 | -116.29908 | 30113 ft | 409 kts | 229° |
| 2026-04-25 17:41 | 34.53825 | -116.32383 | 29686 ft | 402 kts | 228° |
| 2026-04-25 17:41 | 34.51917 | -116.34796 | 29233 ft | 401 kts | 228° |
| 2026-04-25 17:41 | 34.49975 | -116.37249 | 28759 ft | 403 kts | 228° |
| 2026-04-25 17:42 | 34.48067 | -116.39658 | 28293 ft | 401 kts | 228° |
| 2026-04-25 17:42 | 34.46154 | -116.42072 | 27820 ft | 398 kts | 228° |
| 2026-04-25 17:42 | 34.44241 | -116.44483 | 27352 ft | 394 kts | 228° |
| 2026-04-25 17:42 | 34.42409 | -116.46948 | 26879 ft | 390 kts | 233° |
| 2026-04-25 17:43 | 34.40904 | -116.49680 | 26387 ft | 385 kts | 242° |
| 2026-04-25 17:43 | 34.39700 | -116.52517 | 25925 ft | 380 kts | 243° |
| 2026-04-25 17:43 | 34.38536 | -116.55349 | 25468 ft | 376 kts | 244° |
| 2026-04-25 17:43 | 34.37357 | -116.58217 | 24992 ft | 376 kts | 243° |
| 2026-04-25 17:44 | 34.36189 | -116.61052 | 24524 ft | 376 kts | 244° |
| 2026-04-25 17:44 | 34.35030 | -116.63865 | 24072 ft | 374 kts | 244° |
| 2026-04-25 17:44 | 34.33914 | -116.66568 | 23957 ft | 360 kts | 243° |
| 2026-04-25 17:44 | 34.32982 | -116.68836 | 23926 ft | 352 kts | 243° |
| 2026-04-25 17:45 | 34.31902 | -116.71523 | 23434 ft | 357 kts | 244° |
| 2026-04-25 17:45 | 34.31188 | -116.73309 | 23073 ft | 356 kts | 244° |
| 2026-04-25 17:45 | 34.29752 | -116.76888 | 22451 ft | 352 kts | 243° |
| 2026-04-25 17:45 | 34.28694 | -116.79520 | 22023 ft | 347 kts | 244° |
| 2026-04-25 17:46 | 34.27650 | -116.82114 | 21598 ft | 343 kts | 243° |
| 2026-04-25 17:46 | 34.26606 | -116.84704 | 21176 ft | 340 kts | 244° |
| 2026-04-25 17:46 | 34.25574 | -116.87263 | 20760 ft | 338 kts | 244° |
| 2026-04-25 17:46 | 34.24541 | -116.89821 | 20355 ft | 337 kts | 244° |
| 2026-04-25 17:47 | 34.23524 | -116.92338 | 19946 ft | 337 kts | 244° |
| 2026-04-25 17:47 | 34.22494 | -116.94883 | 19525 ft | 335 kts | 244° |
| 2026-04-25 17:47 | 34.21477 | -116.97400 | 19114 ft | 334 kts | 245° |
| 2026-04-25 17:47 | 34.20660 | -116.99979 | 18731 ft | 331 kts | 251° |
| 2026-04-25 17:48 | 34.19226 | -117.05279 | 18122 ft | 331 kts | 251° |
| 2026-04-25 17:48 | 34.18515 | -117.07917 | 17826 ft | 329 kts | 251° |
| 2026-04-25 17:48 | 34.17801 | -117.10553 | 17512 ft | 329 kts | 251° |
| 2026-04-25 17:49 | 34.17091 | -117.13173 | 17202 ft | 328 kts | 251° |
| 2026-04-25 17:49 | 34.16373 | -117.15817 | 16894 ft | 327 kts | 251° |
| 2026-04-25 17:49 | 34.15668 | -117.18388 | 16515 ft | 326 kts | 251° |
| 2026-04-25 17:49 | 34.14948 | -117.21004 | 16156 ft | 324 kts | 251° |
| 2026-04-25 17:50 | 34.14242 | -117.23570 | 15814 ft | 322 kts | 251° |
| 2026-04-25 17:50 | 34.13546 | -117.26099 | 15471 ft | 320 kts | 251° |
| 2026-04-25 17:50 | 34.12839 | -117.28661 | 15117 ft | 318 kts | 251° |
| 2026-04-25 17:50 | 34.12150 | -117.31161 | 14777 ft | 316 kts | 251° |
| 2026-04-25 17:51 | 34.11449 | -117.33697 | 14430 ft | 316 kts | 251° |
| 2026-04-25 17:51 | 34.10764 | -117.36179 | 14084 ft | 314 kts | 251° |
| 2026-04-25 17:51 | 34.10089 | -117.38690 | 13724 ft | 311 kts | 252° |
| 2026-04-25 17:51 | 34.09475 | -117.41180 | 13335 ft | 308 kts | 252° |
| 2026-04-25 17:52 | 34.08870 | -117.43640 | 12944 ft | 305 kts | 252° |
| 2026-04-25 17:52 | 34.08466 | -117.45263 | 12685 ft | 303 kts | 252° |
| 2026-04-25 17:52 | 34.07662 | -117.48479 | 12183 ft | 299 kts | 253° |
| 2026-04-25 17:52 | 34.07064 | -117.50860 | 11819 ft | 295 kts | 253° |
| 2026-04-25 17:53 | 34.06468 | -117.53194 | 11599 ft | 291 kts | 252° |
| 2026-04-25 17:53 | 34.05867 | -117.55544 | 11388 ft | 288 kts | 253° |
| 2026-04-25 17:53 | 34.05287 | -117.57812 | 11165 ft | 281 kts | 253° |
| 2026-04-25 17:53 | 34.04722 | -117.60019 | 10948 ft | 275 kts | 253° |
| 2026-04-25 17:54 | 34.04162 | -117.62209 | 10731 ft | 268 kts | 253° |
| 2026-04-25 17:54 | 34.03618 | -117.64333 | 10515 ft | 263 kts | 253° |
| 2026-04-25 17:54 | 34.03072 | -117.66464 | 10305 ft | 257 kts | 252° |
| 2026-04-25 17:54 | 34.02547 | -117.68507 | 10102 ft | 255 kts | 252° |
| 2026-04-25 17:55 | 34.02133 | -117.70598 | 9893 ft | 256 kts | 261° |
| 2026-04-25 17:55 | 34.01912 | -117.72741 | 9586 ft | 258 kts | 262° |
| 2026-04-25 17:55 | 34.01710 | -117.74889 | 9270 ft | 257 kts | 262° |
| 2026-04-25 17:55 | 34.01508 | -117.77003 | 8967 ft | 257 kts | 263° |
| 2026-04-25 17:56 | 34.01302 | -117.79128 | 8672 ft | 256 kts | 262° |
| 2026-04-25 17:56 | 34.01079 | -117.81261 | 8375 ft | 256 kts | 262° |
| 2026-04-25 17:56 | 34.00848 | -117.83412 | 8073 ft | 256 kts | 262° |
| 2026-04-25 17:56 | 34.00627 | -117.85534 | 7786 ft | 256 kts | 262° |
| 2026-04-25 17:57 | 34.00411 | -117.87650 | 7509 ft | 257 kts | 262° |
| 2026-04-25 17:57 | 34.00194 | -117.89790 | 7222 ft | 257 kts | 262° |
| 2026-04-25 17:57 | 33.99980 | -117.91922 | 6936 ft | 257 kts | 262° |
| 2026-04-25 17:57 | 33.99836 | -117.93359 | 6741 ft | 257 kts | 263° |
| 2026-04-25 17:58 | 33.99554 | -117.96210 | 6359 ft | 258 kts | 263° |
| 2026-04-25 17:58 | 33.99343 | -117.98347 | 6067 ft | 258 kts | 263° |
| 2026-04-25 17:58 | 33.99131 | -118.00509 | 5761 ft | 258 kts | 263° |
| 2026-04-25 17:58 | 33.98919 | -118.02670 | 5414 ft | 260 kts | 262° |
| 2026-04-25 17:59 | 33.98705 | -118.04843 | 5064 ft | 262 kts | 262° |
| 2026-04-25 17:59 | 33.98489 | -118.07024 | 4810 ft | 259 kts | 262° |
| 2026-04-25 17:59 | 33.98287 | -118.09118 | 4764 ft | 249 kts | 262° |
| 2026-04-25 17:59 | 33.98102 | -118.11144 | 4723 ft | 234 kts | 263° |
| 2026-04-25 18:00 | 33.97930 | -118.13076 | 4505 ft | 228 kts | 263° |
| 2026-04-25 18:00 | 33.97757 | -118.14954 | 4221 ft | 226 kts | 262° |
| 2026-04-25 18:00 | 33.97576 | -118.16835 | 3932 ft | 224 kts | 262° |
| 2026-04-25 18:00 | 33.97392 | -118.18694 | 3643 ft | 223 kts | 262° |
| 2026-04-25 18:01 | 33.97208 | -118.20542 | 3353 ft | 222 kts | 262° |
| 2026-04-25 18:01 | 33.97026 | -118.22357 | 3069 ft | 207 kts | 262° |
| 2026-04-25 18:01 | 33.96866 | -118.23989 | 2818 ft | 191 kts | 262° |
| 2026-04-25 18:01 | 33.96713 | -118.25530 | 2577 ft | 179 kts | 261° |
| 2026-04-25 18:02 | 33.96565 | -118.26993 | 2346 ft | 170 kts | 261° |
| 2026-04-25 18:02 | 33.96424 | -118.28365 | 2111 ft | 164 kts | 261° |
| 2026-04-25 18:02 | 33.96288 | -118.29702 | 1896 ft | 152 kts | 261° |
| 2026-04-25 18:02 | 33.96165 | -118.30907 | 1707 ft | 144 kts | 260° |
| 2026-04-25 18:03 | 33.96039 | -118.32092 | 1502 ft | 141 kts | 261° |
| 2026-04-25 18:03 | 33.95921 | -118.33262 | 1270 ft | 139 kts | 261° |
| 2026-04-25 18:03 | 33.95818 | -118.34409 | 1055 ft | 136 kts | 261° |
| 2026-04-25 18:03 | 33.95703 | -118.35528 | 866 ft | 133 kts | 260° |
| 2026-04-25 18:04 | 33.95575 | -118.36646 | 700 ft | 134 kts | 261° |
| 2026-04-25 18:04 | 33.95459 | -118.37760 | 531 ft | 134 kts | 262° |
| 2026-04-25 18:04 | 33.95356 | -118.38864 | 367 ft | 133 kts | 262° |
| 2026-04-25 18:04 | 33.95237 | -118.39979 | 195 ft | 132 kts | 261° |
| 2026-04-25 18:05 | 33.95124 | -118.41029 | 130 ft | 113 kts | 263° |
| 2026-04-25 18:05 | 33.95047 | -118.41769 | 130 ft | 65 kts | 263° |
| 2026-04-25 18:05 | 33.95005 | -118.42194 | 127 ft | 35 kts | 263° |
| 2026-04-25 18:05 | 33.94961 | -118.42481 | 124 ft | 34 kts | 246° |
| 2026-04-25 18:06 | 33.94879 | -118.42642 | 122 ft | 12 kts | 230° |
| 2026-04-25 18:06 | 33.94865 | -118.42661 | 121 ft | 0 kts | 227° |
| 2026-04-25 18:06 | 33.94864 | -118.42661 | 121 ft | 0 kts | 227° |
| 2026-04-25 18:06 | 33.94835 | -118.42697 | 120 ft | 12 kts | 223° |
| 2026-04-25 18:07 | 33.94736 | -118.42770 | 117 ft | 18 kts | 197° |
| 2026-04-25 18:07 | 33.94604 | -118.42773 | 116 ft | 16 kts | 171° |
| 2026-04-25 18:07 | 33.94557 | -118.42680 | 115 ft | 16 kts | 84° |
| 2026-04-25 18:07 | 33.94570 | -118.42543 | 118 ft | 16 kts | 83° |
| 2026-04-25 18:08 | 33.94586 | -118.42403 | 121 ft | 16 kts | 83° |
| 2026-04-25 18:08 | 33.94599 | -118.42263 | 124 ft | 17 kts | 83° |
| 2026-04-25 18:08 | 33.94614 | -118.42111 | 124 ft | 19 kts | 84° |
| 2026-04-25 18:08 | 33.94625 | -118.41995 | 126 ft | 7 kts | 83° |
| 2026-04-25 18:09 | 33.94632 | -118.41919 | 126 ft | 10 kts | 84° |
| 2026-04-25 18:09 | 33.94640 | -118.41819 | 127 ft | 13 kts | 85° |
| 2026-04-25 18:09 | 33.94650 | -118.41701 | 127 ft | 15 kts | 83° |
| 2026-04-25 18:09 | 33.94660 | -118.41611 | 127 ft | 16 kts | 82° |
| 2026-04-25 18:10 | 33.94677 | -118.41453 | 127 ft | 10 kts | 82° |
| 2026-04-25 18:10 | 33.94633 | -118.41377 | 127 ft | 14 kts | 166° |
| 2026-04-25 18:10 | 33.94534 | -118.41362 | 127 ft | 8 kts | 173° |
| 2026-04-25 18:10 | 33.94500 | -118.41345 | 127 ft | 4 kts | 127° |
| 2026-04-25 18:11 | 33.94492 | -118.41300 | 127 ft | 6 kts | 101° |
| 2026-04-25 18:11 | 33.94473 | -118.41260 | 127 ft | 4 kts | 134° |
| 2026-04-25 18:11 | 33.94456 | -118.41213 | 127 ft | 9 kts | 88° |
| 2026-04-25 18:11 | 33.94461 | -118.41156 | 127 ft | 2 kts | 84° |
| 2026-04-25 18:12 | 33.94462 | -118.41142 | 127 ft | 0 kts | 84° |